Date,TemperatureHighF,TemperatureAvgF,TemperatureLowF,DewpointHighF,DewpointAvgF,DewpointLowF,HumidityHigh,HumidityAvg,HumidityLow,PressureMaxIn,PressureMinIn,WindSpeedMaxMPH,WindSpeedAvgMPH,GustSpeedMaxMPH,PrecipitationSumIn
2013-1-1,56.9,54.4,52.3,52.9,50.1,46.6,94,85,78,30.15,29.94,18,7,18,0.01
2013-1-2,53.7,50.1,43.8,52.7,48.1,40.8,97,93,87,30.20,29.89,22,8,22,0.17
2013-1-3,44.5,42.2,38.7,41.5,38.9,35.7,93,88,81,30.27,30.12,18,9,20,0.08
2013-1-4,51.7,42.2,34.4,38.9,34.7,30.0,93,76,48,30.33,30.20,20,7,21,0.00
2013-1-5,49.4,42.1,33.2,38.8,33.6,28.5,89,72,52,30.40,30.28,16,5,17,0.00
2013-1-6,51.3,47.9,43.6,47.2,42.0,37.6,92,80,69,30.30,30.07,16,4,16,0.02
2013-1-7,52.2,46.9,39.5,45.0,40.3,36.3,94,79,60,30.43,30.14,25,11,25,0.00
2013-1-8,56.6,49.2,38.2,51.5,44.7,35.2,91,84,75,30.43,30.34,18,8,18,0.00
2013-1-9,61.6,55.8,49.3,55.3,52.3,47.4,95,88,78,30.41,30.34,13,4,13,0.00
2013-1-10,60.7,55.4,50.9,54.9,50.1,40.3,97,83,61,30.49,30.39,25,8,25,0.00
2013-1-11,64.7,56.5,50.4,62.9,54.4,43.8,99,92,78,30.41,30.15,18,7,19,0.10
2013-1-12,64.3,59.2,54.7,63.6,57.7,54.0,99,95,88,30.18,30.09,12,4,13,0.01
2013-1-13,63.6,57.7,54.0,61.0,56.3,52.8,98,95,89,30.18,30.09,17,5,18,0.01
2013-1-14,66.3,58.9,55.3,63.5,58.0,54.7,100,97,89,30.19,30.10,19,7,21,0.01
2013-1-15,59.7,56.4,54.3,59.4,55.9,54.0,99,98,97,30.17,30.06,20,6,22,0.01
2013-1-16,67.5,59.8,54.4,66.3,58.4,54.1,100,95,83,30.07,29.95,23,7,23,0.01
2013-1-17,69.3,56.8,44.1,65.4,55.2,41.8,99,95,79,29.99,29.74,34,10,38,1.27
2013-1-18,49.2,43.5,37.9,42.1,35.9,30.5,95,76,50,30.52,29.94,33,14,33,0.01
2013-1-19,56.2,46.1,36.5,47.7,38.8,29.1,98,77,52,30.50,30.21,18,5,18,0.00
2013-1-20,64.3,53.3,46.5,48.1,44.0,34.8,98,74,37,30.20,29.99,27,8,27,0.00
2013-1-21,58.2,51.3,43.4,51.4,44.3,37.1,84,77,68,30.07,29.89,22,6,22,0.00
2013-1-22,53.3,42.7,35.3,41.5,26.0,16.1,71,52,34,30.26,29.94,29,10,31,0.00
2013-1-23,46.9,36.5,29.2,36.4,19.4,7.7,68,50,31,30.39,30.14,26,10,26,0.00
2013-1-24,49.0,40.7,29.7,41.0,28.6,13.4,77,62,47,30.52,30.00,39,18,39,0.00
2013-1-25,38.9,31.6,25.1,35.0,24.8,10.2,99,77,47,30.52,30.11,25,10,25,0.10
2013-1-26,45.6,36.8,32.1,39.0,32.7,29.1,94,85,72,30.39,30.12,19,9,19,0.00
2013-1-27,43.4,36.5,29.2,33.9,30.7,27.7,95,80,62,30.58,30.38,25,10,25,0.00
2013-1-28,52.2,44.2,35.3,48.9,40.2,29.6,97,86,76,30.52,30.27,13,5,14,0.00
2013-1-29,61.9,54.6,49.1,59.4,53.1,48.0,99,95,88,30.27,30.13,20,8,20,0.02
2013-1-30,61.7,57.9,52.8,59.4,56.7,52.2,99,96,89,30.15,29.62,36,13,36,0.00
2013-1-31,63.4,52.6,45.7,62.1,40.8,28.9,96,66,40,30.08,29.52,44,21,44,0.14
2013-2-1,52.2,44.2,33.6,35.2,26.0,12.0,64,50,26,30.38,30.02,42,17,42,0.00
2013-2-2,50.0,37.9,26.2,43.8,28.2,15.6,86,68,50,30.42,30.04,19,5,19,0.00
2013-2-3,53.0,46.6,41.2,43.4,37.4,30.2,89,72,44,30.04,29.85,30,10,31,0.00
2013-2-4,48.3,42.5,34.7,40.7,32.7,26.8,84,69,54,30.17,29.98,17,6,17,0.00
2013-2-5,57.9,51.3,45.1,49.5,44.6,38.5,90,78,53,30.06,29.89,24,8,24,0.00
2013-2-6,62.2,53.5,48.5,50.6,47.8,42.1,92,82,51,30.24,29.98,21,6,21,0.00
2013-2-7,58.7,52.3,47.1,54.4,49.5,44.3,96,90,79,30.26,29.80,32,14,34,2.05
2013-2-8,58.2,53.4,48.1,55.5,49.0,42.9,98,85,70,30.00,29.52,42,17,44,0.51
2013-2-9,53.7,45.8,38.0,42.6,32.7,25.5,81,62,35,30.37,30.00,30,11,31,0.00
2013-2-10,55.9,46.8,39.1,53.2,41.1,30.7,93,81,67,30.48,30.26,19,8,19,0.00
2013-2-11,65.1,58.2,53.6,61.8,56.2,51.0,98,93,88,30.31,29.96,29,13,31,0.14
2013-2-12,60.9,56.6,51.2,58.3,52.5,43.8,96,86,60,30.08,29.93,23,9,23,0.18
2013-2-13,60.2,52.2,48.8,57.9,50.0,45.7,98,92,76,29.98,29.64,38,10,38,0.34
2013-2-14,52.4,48.0,42.3,49.0,41.7,38.1,91,79,65,30.09,29.80,22,7,22,0.00
2013-2-15,56.0,48.1,39.2,45.0,41.8,37.1,92,80,62,30.10,29.96,14,6,14,0.00
2013-2-16,49.9,42.8,34.6,44.4,39.6,33.0,95,89,76,29.96,29.70,35,10,36,0.15
2013-2-17,40.2,35.4,30.7,35.2,24.2,13.1,95,67,36,30.29,29.87,42,18,44,0.02
2013-2-18,49.4,40.2,30.3,42.2,27.4,18.0,81,61,45,30.46,30.29,23,8,23,0.00
2013-2-19,59.6,53.5,45.5,55.1,49.7,39.9,94,87,75,30.30,29.92,34,10,36,0.04
2013-2-20,55.1,47.4,39.8,46.6,35.9,18.3,94,68,24,30.12,29.97,24,9,24,0.00
2013-2-21,51.8,44.7,34.8,43.2,34.4,24.4,87,67,41,30.24,30.09,24,8,25,0.00
2013-2-22,52.2,46.3,41.3,50.7,39.7,29.1,95,78,60,30.32,30.05,27,12,27,0.00
2013-2-23,54.4,47.6,44.2,53.3,46.9,43.4,98,97,95,30.05,29.81,19,7,19,0.52
2013-2-24,62.4,51.4,46.5,51.3,48.2,45.8,98,90,55,29.99,29.75,25,9,25,0.02
2013-2-25,48.9,44.2,39.7,47.0,37.6,33.0,94,78,64,30.18,29.99,32,12,32,0.00
2013-2-26,62.4,54.4,43.2,62.0,52.5,35.7,99,93,75,30.08,29.61,37,15,38,0.98
2013-2-27,60.4,52.9,49.3,57.8,46.9,41.4,94,80,63,29.82,29.62,33,13,36,0.00
2013-2-28,54.9,49.6,42.7,47.2,40.5,34.9,91,72,52,29.85,29.69,34,13,34,0.00
2013-3-1,53.1,45.3,37.4,37.2,34.2,31.6,81,66,47,29.91,29.80,22,9,22,0.00
2013-3-2,49.5,43.3,37.1,36.6,33.6,29.5,86,70,51,29.91,29.79,21,8,21,0.00
2013-3-3,47.2,40.3,32.9,34.7,28.9,24.7,81,65,45,29.97,29.83,25,11,27,0.00
2013-3-4,50.2,39.8,30.9,33.1,25.5,19.9,76,58,32,30.12,29.96,33,13,33,0.00
2013-3-5,57.2,50.7,41.6,53.5,42.0,28.0,92,73,53,30.12,29.65,26,10,26,0.08
2013-3-6,59.4,49.5,44.1,56.2,37.8,27.9,93,65,45,29.96,29.52,52,28,53,0.03
2013-3-7,54.6,45.7,37.2,38.3,34.3,31.5,81,65,47,30.18,29.95,34,15,34,0.00
2013-3-8,55.1,45.0,35.4,35.2,32.2,28.8,82,62,39,30.24,30.09,38,14,39,0.00
2013-3-9,60.2,48.6,39.1,46.9,38.3,32.1,89,69,44,30.28,30.22,23,9,25,0.00
2013-3-10,55.8,50.2,43.3,50.0,43.8,35.0,94,79,50,30.32,30.24,15,5,16,0.00
2013-3-11,61.1,55.1,49.7,56.7,52.4,48.0,95,91,81,30.25,29.96,34,8,34,0.00
2013-3-12,66.3,58.0,55.0,63.1,56.7,53.8,98,95,86,29.96,29.76,23,9,23,0.84
2013-3-13,59.3,53.3,44.8,57.4,39.3,28.4,97,61,33,30.06,29.87,27,12,28,0.00
2013-3-14,51.9,44.1,35.2,36.0,28.3,22.9,67,54,36,30.23,30.05,32,14,33,0.00
2013-3-15,54.9,47.7,37.4,45.4,35.0,21.8,74,62,36,30.20,29.98,31,10,31,0.00
2013-3-16,70.0,59.8,54.6,53.9,50.1,44.8,79,71,50,29.98,29.75,33,15,33,0.00
2013-3-17,61.7,55.9,49.9,53.8,50.5,46.5,91,82,65,30.12,29.86,33,12,33,0.00
2013-3-18,58.5,52.5,48.3,54.9,49.4,45.1,96,89,83,30.13,29.87,29,7,29,0.00
2013-3-19,68.3,57.3,52.6,57.0,52.1,39.7,100,84,44,29.97,29.73,30,11,30,0.40
2013-3-20,56.4,51.4,46.3,41.9,30.3,18.9,79,45,27,30.11,29.81,23,8,23,0.00
2013-3-21,51.5,45.5,38.3,41.7,31.0,19.7,86,59,31,29.96,29.68,35,14,35,0.00
2013-3-22,49.5,40.3,31.3,36.2,26.8,16.0,72,59,36,30.10,29.96,25,9,29,0.00
2013-3-23,54.2,47.9,41.8,43.8,38.3,31.1,87,70,45,30.05,29.91,12,4,12,0.01
2013-3-24,57.5,49.7,43.4,56.7,47.3,41.6,97,91,75,29.92,29.40,50,14,50,0.95
2013-3-25,51.4,47.1,43.1,44.4,38.8,30.6,97,75,47,29.83,29.50,41,17,41,0.00
2013-3-26,48.8,44.1,37.4,36.6,31.9,28.2,75,63,49,30.09,29.83,26,15,26,0.00
2013-3-27,54.6,45.7,36.5,35.9,30.9,26.1,79,58,35,30.21,30.09,33,15,33,0.00
2013-3-28,55.6,46.1,35.5,39.3,31.1,26.6,77,57,35,30.25,30.13,30,12,31,0.00
2013-3-29,54.7,46.8,38.6,40.3,33.7,28.5,77,61,42,30.33,30.19,25,9,25,0.00
2013-3-30,59.9,55.4,51.9,52.3,49.6,47.5,86,81,74,30.23,30.13,10,4,10,0.01
2013-3-31,62.2,57.5,53.8,56.8,53.8,49.4,93,87,80,30.13,29.86,33,12,35,0.05
2013-4-1,70.6,61.2,54.9,61.0,57.1,52.9,96,87,58,29.90,29.81,29,8,33,0.03
2013-4-2,57.6,54.0,47.1,55.2,43.3,35.2,95,68,50,30.13,29.90,22,10,22,0.00
2013-4-3,53.9,51.7,49.4,50.0,42.0,33.1,91,70,48,30.27,30.09,23,9,24,0.00
2013-4-4,58.8,52.1,49.0,58.2,47.4,40.1,98,84,68,30.28,29.76,44,16,45,1.24
2013-4-5,59.2,50.0,43.4,58.5,47.7,42.5,98,92,78,30.02,29.76,31,10,31,0.00
2013-4-6,58.6,52.5,46.7,49.8,45.7,39.3,95,79,51,30.28,30.01,27,10,29,0.00
2013-4-7,61.1,53.6,43.9,57.2,50.2,40.6,95,88,73,30.28,30.15,19,6,20,0.00
2013-4-8,65.9,61.3,56.7,61.0,58.0,55.0,95,89,82,30.20,30.12,24,7,24,0.00
2013-4-9,68.3,62.5,57.2,63.9,60.2,55.8,97,92,84,30.23,30.11,22,8,23,0.00
2013-4-10,70.6,63.7,58.5,64.0,60.8,57.9,99,91,76,30.16,30.02,27,11,27,0.02
2013-4-11,69.7,63.6,59.4,66.0,61.8,58.2,97,94,87,30.04,29.88,27,9,30,0.00
2013-4-12,67.3,63.1,60.4,66.8,62.3,59.7,99,97,95,29.89,29.69,31,11,31,1.47
2013-4-13,65.2,61.0,56.2,64.9,56.0,47.8,99,84,58,30.02,29.75,28,8,28,0.00
2013-4-14,67.3,60.7,52.8,60.2,56.7,51.7,97,87,64,30.11,30.01,18,3,18,0.01
2013-4-15,67.9,63.5,59.1,62.2,59.9,56.9,94,88,80,30.18,29.93,39,10,40,0.71
2013-4-16,69.5,63.7,58.5,65.1,61.1,57.7,98,91,82,30.27,30.16,16,6,16,0.01
2013-4-17,71.8,65.8,59.4,66.4,62.5,57.9,96,89,80,30.24,30.14,15,4,15,0.00
2013-4-18,72.1,67.6,63.4,66.5,64.5,62.0,96,90,80,30.20,30.08,19,6,19,0.02
2013-4-19,71.8,68.7,65.7,69.7,67.0,64.5,97,94,90,30.08,29.88,30,13,32,0.45
2013-4-20,66.3,58.2,52.9,65.7,51.9,44.0,99,80,62,30.25,29.86,34,12,35,0.65
2013-4-21,61.0,55.5,50.1,50.1,46.8,39.1,91,73,61,30.43,30.24,39,16,40,0.00
2013-4-22,60.0,52.3,45.4,53.5,47.9,40.5,94,85,71,30.39,30.15,37,20,39,0.00
2013-4-23,65.3,56.5,51.4,57.5,52.6,50.0,96,87,67,30.19,30.09,28,14,28,0.00
2013-4-24,67.9,61.4,53.0,62.7,58.5,51.2,97,90,82,30.19,30.06,25,7,25,0.00
2013-4-25,69.2,63.1,56.6,63.5,59.2,52.2,96,87,76,30.26,30.05,28,10,28,0.00
2013-4-26,65.5,59.0,49.7,55.2,51.6,46.8,91,77,61,30.39,30.24,19,9,20,0.00
2013-4-27,67.6,61.6,54.0,56.9,53.9,47.9,93,76,56,30.37,30.27,24,10,24,0.00
2013-4-28,66.0,63.3,61.0,60.6,57.6,53.4,88,82,73,30.27,30.10,23,11,23,0.00
2013-4-29,67.9,64.1,62.2,65.6,61.8,59.9,97,92,86,30.10,29.98,22,7,24,0.97
2013-4-30,68.5,64.7,60.3,65.5,62.2,59.7,98,92,82,30.11,29.97,16,6,17,0.00
2013-5-1,68.9,63.8,59.4,64.8,61.1,57.7,96,91,78,30.22,30.08,23,10,23,0.04
2013-5-2,68.0,64.0,60.6,63.5,61.0,57.1,96,90,79,30.25,30.17,27,13,28,0.06
2013-5-3,66.5,61.3,57.0,61.1,56.0,48.9,94,83,65,30.19,30.12,37,16,37,0.01
2013-5-4,65.8,59.7,55.1,59.0,55.3,51.2,93,85,75,30.12,30.01,36,16,36,0.00
2013-5-5,67.4,62.1,56.3,63.1,59.4,54.2,95,91,86,30.02,29.92,31,15,31,0.05
2013-5-6,71.3,66.8,63.4,65.8,62.9,60.3,95,87,79,29.94,29.84,27,10,27,0.11
2013-5-7,67.3,63.3,57.1,60.3,56.8,53.3,91,80,64,29.97,29.86,29,10,29,0.00
2013-5-8,69.5,65.4,59.2,64.1,60.8,57.2,94,85,71,30.03,29.93,29,10,30,0.00
2013-5-9,73.8,68.8,62.0,66.9,63.0,59.3,92,82,73,30.08,29.96,20,8,21,0.00
2013-5-10,74.1,69.0,64.0,67.7,65.3,62.1,95,88,77,30.08,30.00,25,9,26,0.00
2013-5-11,74.1,69.8,67.7,70.6,67.1,65.0,96,91,78,30.03,29.83,28,11,29,0.00
2013-5-12,78.3,72.1,66.3,67.6,61.7,51.1,93,72,42,29.97,29.78,29,11,29,0.00
2013-5-13,69.1,62.6,55.6,53.2,45.9,38.5,70,55,33,30.12,29.96,36,13,36,0.00
2013-5-14,66.7,60.3,48.7,53.7,45.2,35.2,78,59,32,30.24,30.12,26,10,26,0.00
2013-5-15,76.3,68.8,63.1,65.1,61.4,53.6,89,78,52,30.14,29.96,32,12,33,0.00
2013-5-16,78.0,72.4,67.5,68.4,65.4,61.8,86,79,65,30.00,29.92,25,11,26,0.00
2013-5-17,75.5,71.5,68.5,69.1,66.9,65.1,90,86,79,30.10,29.99,20,9,22,0.00
2013-5-18,77.2,71.9,68.5,72.1,68.5,64.2,96,89,78,30.17,30.09,21,7,21,0.00
2013-5-19,79.0,73.0,69.4,72.6,70.0,68.2,96,91,80,30.17,30.09,15,6,16,0.00
2013-5-20,78.7,73.2,70.5,72.0,70.1,68.4,95,90,79,30.15,30.06,27,9,27,0.01
2013-5-21,77.1,72.5,70.2,72.2,70.0,68.7,96,92,83,30.08,30.00,21,9,23,0.00
2013-5-22,79.8,74.3,69.0,73.4,70.6,66.8,97,89,79,30.06,29.96,20,8,22,0.01
2013-5-23,79.0,73.1,69.5,73.4,70.6,68.3,97,92,81,29.99,29.84,24,8,25,0.09
2013-5-24,77.0,70.8,58.4,70.1,60.7,45.8,96,73,44,30.14,29.77,37,14,37,0.00
2013-5-25,73.3,61.5,49.2,59.4,47.3,38.8,85,62,32,30.27,30.12,22,8,23,0.00
2013-5-26,69.5,64.2,58.4,60.1,55.1,48.9,90,73,50,30.24,30.14,16,5,16,0.00
2013-5-27,76.7,68.9,57.7,63.1,59.0,52.9,89,71,53,30.28,30.20,16,6,16,0.00
2013-5-28,80.2,74.0,66.6,71.5,68.3,62.6,93,83,74,30.28,30.19,19,6,19,0.00
2013-5-29,82.1,75.5,68.5,72.7,70.1,66.9,96,84,68,30.28,30.18,17,6,17,0.00
2013-5-30,82.3,76.2,69.2,75.3,71.7,67.4,95,86,78,30.27,30.20,19,7,19,0.00
2013-5-31,83.4,77.3,72.3,74.7,72.8,70.8,96,86,73,30.24,30.14,20,7,20,0.00
2013-6-1,82.2,77.2,72.6,73.9,72.1,70.5,94,85,75,30.18,30.08,25,9,26,0.00
2013-6-2,81.0,76.9,73.0,74.4,72.8,70.8,94,87,76,30.10,29.96,26,11,28,0.00
2013-6-3,79.0,73.8,68.8,76.3,72.1,67.6,98,94,89,29.98,29.84,37,9,40,1.57
2013-6-4,79.7,73.4,67.8,74.2,70.7,67.2,98,91,81,30.08,29.90,24,8,24,0.01
2013-6-5,78.8,74.4,70.8,70.5,68.7,66.3,91,83,67,30.10,30.01,26,13,26,0.00
2013-6-6,79.2,75.8,73.3,74.4,72.8,70.4,96,90,83,30.04,29.85,22,10,23,0.26
2013-6-7,80.3,77.1,73.8,76.0,74.1,71.9,98,91,81,29.85,29.57,49,21,49,1.01
2013-6-8,81.5,78.0,74.0,77.3,75.6,72.4,96,92,86,30.10,29.85,31,13,31,0.39
2013-6-9,82.9,78.4,75.3,79.0,76.2,73.1,97,93,87,30.16,30.09,33,10,33,0.01
2013-6-10,81.6,78.1,73.4,76.9,74.9,69.3,95,90,82,30.14,29.98,32,15,33,0.00
2013-6-11,83.3,77.8,74.2,76.3,73.5,70.5,94,87,72,30.01,29.88,30,12,30,0.00
2013-6-12,86.5,80.1,72.9,78.6,75.1,69.4,97,85,62,29.98,29.88,24,8,25,0.00
2013-6-13,87.9,82.4,72.6,80.2,77.5,67.5,96,86,57,29.88,29.64,45,12,46,0.00
2013-6-14,79.5,74.3,69.5,70.8,64.7,58.9,95,73,52,30.01,29.68,40,13,40,0.27
2013-6-15,83.1,75.8,67.1,66.9,62.1,56.5,89,64,47,30.12,30.01,25,8,25,0.00
2013-6-16,81.5,77.1,71.7,69.1,67.7,65.8,87,73,61,30.17,30.05,31,12,31,0.00
2013-6-17,82.3,78.0,73.9,74.7,71.7,66.9,89,81,70,30.08,29.97,27,11,27,0.00
2013-6-18,83.8,78.8,74.8,78.2,74.6,70.4,91,87,75,30.01,29.81,34,10,34,0.05
2013-6-19,79.0,74.3,72.0,76.7,71.2,67.1,96,90,83,30.08,29.83,38,10,38,0.90
2013-6-20,80.7,74.0,66.2,70.3,66.3,62.0,96,78,56,30.19,30.07,26,12,26,0.00
2013-6-21,82.1,74.2,64.3,74.7,69.7,62.0,97,86,75,30.19,30.13,24,11,25,0.00
2013-6-22,80.0,76.2,71.4,76.1,73.6,69.9,96,92,84,30.16,30.09,33,16,33,1.31
2013-6-23,84.2,78.7,76.0,77.7,75.2,72.2,95,89,80,30.23,30.14,31,9,31,0.05
2013-6-24,81.8,77.3,73.1,77.9,75.0,70.3,96,93,86,30.24,30.12,22,8,24,0.62
2013-6-25,83.3,78.6,73.4,78.8,75.5,70.2,95,90,83,30.15,30.03,37,8,38,0.02
2013-6-26,85.5,79.5,74.0,77.8,75.3,70.5,94,87,71,30.05,29.94,33,10,33,0.01
2013-6-27,82.7,78.2,72.3,78.4,74.9,69.2,95,90,74,29.95,29.76,37,13,37,0.11
2013-6-28,84.1,80.2,74.2,78.5,77.2,71.8,96,91,82,29.83,29.63,31,12,34,0.49
2013-6-29,81.2,78.5,75.7,76.9,75.4,72.2,95,90,80,29.80,29.63,33,15,33,0.04
2013-6-30,80.8,76.8,71.9,77.1,74.8,70.1,98,94,85,29.90,29.75,46,13,47,1.25
2013-7-1,78.3,76.6,73.5,76.7,74.9,72.0,97,95,92,30.07,29.86,33,15,33,0.72
2013-7-2,85.7,79.7,74.1,79.6,76.3,71.6,96,89,81,30.20,30.05,33,12,33,0.29
2013-7-3,85.0,80.8,76.4,79.5,77.2,74.2,96,89,82,30.27,30.17,30,12,30,0.02
2013-7-4,85.9,81.8,78.0,77.9,76.6,74.8,93,84,74,30.29,30.22,21,11,22,0.00
2013-7-5,86.3,82.3,78.6,79.0,77.0,74.8,93,84,75,30.29,30.20,20,11,20,0.00
2013-7-6,86.9,82.2,78.6,77.4,75.7,73.5,90,81,71,30.26,30.16,17,8,18,0.00
2013-7-7,84.0,80.7,77.7,75.3,74.3,73.0,90,81,72,30.21,30.10,23,10,23,0.00
2013-7-8,85.0,80.0,76.4,76.6,74.8,73.1,91,84,74,30.20,30.11,23,8,25,0.00
2013-7-9,85.3,80.1,75.3,78.1,75.9,72.8,95,87,75,30.19,30.10,25,8,25,0.04
2013-7-10,85.0,80.8,77.7,77.6,75.8,74.0,91,85,77,30.14,29.99,26,10,29,0.00
2013-7-11,84.3,79.7,76.5,77.4,75.7,72.1,93,88,78,30.01,29.90,28,11,29,0.10
2013-7-12,79.3,74.9,72.0,76.4,73.1,70.1,97,94,87,29.99,29.87,31,6,31,2.48
2013-7-13,84.0,78.9,73.9,77.8,75.3,72.9,98,89,80,30.17,29.97,36,12,40,0.08
2013-7-14,84.8,81.2,78.6,78.3,76.9,74.5,93,87,80,30.27,30.16,22,10,23,0.00
2013-7-15,84.8,81.9,79.4,77.7,76.8,75.3,93,85,77,30.29,30.23,18,8,19,0.00
2013-7-16,89.2,81.8,74.1,78.3,75.6,72.8,97,82,67,30.26,30.17,19,6,19,0.00
2013-7-17,87.5,81.8,76.9,79.3,76.4,73.6,92,84,75,30.20,30.10,22,6,22,0.00
2013-7-18,88.5,82.2,76.5,78.4,76.1,74.0,94,82,68,30.14,30.06,22,6,22,0.00
2013-7-19,86.9,81.8,77.6,78.7,76.6,74.8,92,84,75,30.14,30.01,28,11,28,0.00
2013-7-20,85.2,80.9,78.0,78.3,75.5,73.0,92,84,73,30.07,29.97,30,13,30,0.00
2013-7-21,83.5,78.2,76.3,77.1,74.6,71.4,93,89,78,30.03,29.93,25,9,25,0.07
2013-7-22,83.0,78.8,75.3,77.7,75.7,74.1,96,90,83,29.97,29.85,32,9,32,0.00
2013-7-23,81.7,78.6,76.7,76.5,75.0,73.3,93,89,83,29.90,29.74,24,10,25,0.00
2013-7-24,84.1,78.6,75.5,78.3,75.8,73.7,96,91,80,29.81,29.74,20,7,22,0.03
2013-7-25,85.3,78.7,72.9,75.9,73.6,70.9,98,85,68,29.98,29.75,20,8,21,0.00
2013-7-26,82.3,76.9,69.7,73.7,71.8,68.2,96,85,72,30.09,29.98,16,7,17,0.00
2013-7-27,84.3,79.7,73.0,77.5,75.0,70.9,94,86,78,30.05,29.94,17,6,17,0.00
2013-7-28,86.0,80.1,75.4,79.0,76.3,72.1,96,88,76,30.01,29.89,32,9,32,0.16
2013-7-29,86.4,78.5,72.2,80.5,75.3,69.9,95,90,77,30.15,30.00,28,6,30,0.86
2013-7-30,85.5,78.1,73.2,77.4,74.1,71.1,95,88,75,30.19,30.11,18,4,18,0.00
2013-7-31,82.9,79.5,75.2,76.9,75.3,72.5,95,87,73,30.14,30.01,17,6,17,0.00
2013-8-1,81.6,76.9,71.8,76.5,74.0,68.8,96,91,83,30.02,29.90,45,7,46,0.91
2013-8-2,86.8,79.6,75.3,79.4,76.2,73.8,96,89,78,30.03,29.91,26,10,26,0.01
2013-8-3,84.0,80.2,76.7,79.1,76.9,75.2,96,90,83,30.04,29.91,21,7,21,0.00
2013-8-4,84.5,79.3,74.5,78.1,74.0,68.8,96,84,65,30.01,29.86,26,8,26,0.01
2013-8-5,85.3,77.7,70.1,70.1,66.6,61.9,89,70,52,30.08,29.98,17,6,17,0.00
2013-8-6,85.3,79.9,72.8,71.1,68.1,62.3,85,68,57,30.07,29.98,16,5,16,0.00
2013-8-7,84.3,80.2,73.3,76.1,72.9,69.0,89,79,72,30.09,30.02,16,6,16,0.00
2013-8-8,88.6,82.2,78.3,79.5,77.2,72.7,93,85,72,30.06,30.00,18,6,19,0.00
2013-8-9,86.1,81.9,78.1,79.1,77.5,76.0,94,87,77,30.09,30.02,27,11,27,0.00
2013-8-10,86.3,81.5,77.6,79.3,77.2,75.1,95,87,75,30.11,30.02,29,9,29,0.00
2013-8-11,87.0,80.7,76.4,80.1,76.4,73.0,95,87,76,30.11,30.01,25,8,25,0.01
2013-8-12,86.3,80.5,75.4,79.9,76.1,70.9,94,87,75,30.06,29.93,28,9,28,1.06
2013-8-13,84.3,81.0,77.0,79.4,77.3,73.8,95,89,81,29.95,29.78,27,9,27,0.00
2013-8-14,80.3,74.5,68.2,77.1,71.1,63.9,97,89,82,30.04,29.79,37,11,40,0.91
2013-8-15,70.2,66.9,64.0,65.8,63.9,62.3,96,90,81,30.09,30.02,23,12,23,0.77
2013-8-16,73.0,69.6,65.7,69.6,67.3,63.3,96,93,88,30.12,30.02,17,8,17,0.02
2013-8-17,76.8,72.5,68.5,74.2,70.9,66.2,97,95,90,30.12,30.02,24,8,24,0.98
2013-8-18,76.2,63.6,0.0,73.2,62.0,0.0,98,81,88,30.19,30.11,13,5,13,0.01
2013-8-19,0.0,0.0,0.0,0.0,0.0,0.0,0,0,100,30.14,30.07,19,9,19,0.08
2013-8-20,0.0,0.0,0.0,0.0,0.0,0.0,0,0,100,30.17,30.07,17,6,17,0.01
2013-8-21,0.0,0.0,0.0,0.0,0.0,0.0,0,0,100,30.22,30.11,23,5,23,0.00
2013-8-22,0.0,0.0,0.0,0.0,0.0,0.0,0,0,100,30.14,30.00,16,5,16,0.05
2013-8-23,0.0,0.0,0.0,0.0,0.0,0.0,0,0,100,30.03,29.91,18,7,19,0.00
2013-8-24,0.0,0.0,0.0,0.0,0.0,0.0,0,0,100,30.23,30.00,26,12,26,0.02
2013-8-25,75.1,8.3,0.0,67.8,7.5,-5.5,84,11,77,30.32,30.22,25,11,25,0.00
2013-8-26,83.9,73.1,62.6,70.1,65.3,59.7,92,77,60,30.27,30.11,15,7,16,0.00
2013-8-27,83.2,75.8,67.2,70.1,66.8,63.8,90,74,58,30.12,29.97,26,9,26,0.00
2013-8-28,82.7,77.6,72.9,76.6,71.8,67.7,88,82,74,30.01,29.90,20,7,20,0.02
2013-8-29,87.4,79.7,74.4,78.3,73.5,70.1,89,81,73,29.97,29.84,27,10,27,0.07
2013-8-30,82.0,75.2,68.5,74.0,71.0,67.0,95,87,76,30.02,29.94,22,8,22,0.00
2013-8-31,86.7,79.0,71.6,78.5,74.9,70.4,96,87,76,29.98,29.89,15,5,15,0.01
2013-9-1,85.9,80.1,76.7,78.9,76.3,74.6,96,88,73,29.94,29.83,28,11,32,0.00
2013-9-2,84.7,80.2,76.7,78.3,76.1,72.6,92,87,79,29.90,29.80,29,11,30,0.04
2013-9-3,84.8,78.2,72.0,77.4,73.7,67.2,92,86,78,29.93,29.81,33,8,36,0.07
2013-9-4,83.3,77.5,71.1,75.9,72.7,68.3,93,85,76,30.06,29.92,13,4,13,0.00
2013-9-5,85.7,80.5,76.1,78.3,76.4,74.9,98,88,74,30.08,30.00,17,3,17,0.00
2013-9-6,84.9,76.1,68.2,75.9,71.0,64.6,95,85,71,30.09,30.01,31,9,33,0.29
2013-9-7,80.6,74.5,66.1,68.3,64.5,61.6,89,72,54,30.09,29.98,19,8,19,0.00
2013-9-8,84.3,77.7,69.2,74.3,69.6,63.8,85,76,69,29.99,29.88,22,7,22,0.00
2013-9-9,84.7,79.1,72.9,75.5,72.4,69.1,89,80,68,30.14,29.97,18,5,19,0.00
2013-9-10,85.5,78.9,72.4,75.5,72.5,69.6,94,81,64,30.22,30.13,20,7,21,0.00
2013-9-11,83.9,78.1,70.6,73.5,71.5,68.2,94,81,64,30.20,30.08,12,4,14,0.00
2013-9-12,86.7,78.3,71.5,76.4,72.5,69.3,94,83,70,30.09,29.83,24,7,24,0.00
2013-9-13,86.6,78.6,73.0,75.4,71.6,66.8,88,79,65,29.83,29.72,22,8,22,0.00
2013-9-14,78.2,73.1,65.9,68.9,65.6,60.4,89,78,67,30.09,29.79,26,11,26,0.00
2013-9-15,79.8,73.6,65.4,71.2,67.3,62.8,93,81,69,30.20,30.09,22,10,22,0.00
2013-9-16,85.5,76.9,71.6,76.6,71.8,65.9,93,84,73,30.13,30.01,29,6,29,0.41
2013-9-17,78.0,70.5,64.6,66.1,62.6,58.2,87,76,62,30.25,30.11,29,14,30,0.01
2013-9-18,77.3,68.1,56.4,65.0,59.9,52.6,89,76,64,30.24,30.13,24,11,24,0.00
2013-9-19,77.2,70.2,61.6,65.1,59.7,56.0,90,71,51,30.17,30.07,16,6,17,0.00
2013-9-20,74.4,69.6,62.5,67.5,62.4,54.2,92,78,54,30.09,29.95,17,5,17,0.01
2013-9-21,79.2,73.3,67.3,73.0,69.2,65.1,97,87,71,29.96,29.74,24,7,24,1.24
2013-9-22,78.8,73.3,68.8,73.6,69.7,64.9,95,89,81,29.85,29.64,30,14,33,0.63
2013-9-23,73.5,67.6,60.4,65.6,58.7,52.3,93,74,50,30.07,29.84,20,10,21,0.00
2013-9-24,75.2,68.3,60.4,61.1,57.4,52.7,88,69,53,30.10,29.95,16,6,17,0.00
2013-9-25,73.8,70.0,65.2,63.8,60.5,56.4,84,72,64,29.95,29.84,20,8,21,0.00
2013-9-26,76.5,69.8,64.4,64.7,62.1,59.8,91,77,60,29.97,29.82,18,9,18,0.03
2013-9-27,75.3,67.5,60.9,63.3,59.9,55.2,94,78,55,30.11,29.95,26,13,26,0.00
2013-9-28,76.4,68.7,63.9,64.0,60.6,58.4,88,76,57,30.15,30.07,21,13,24,0.00
2013-9-29,77.4,67.1,59.1,65.8,61.5,57.6,96,83,61,30.10,29.98,20,9,22,0.00
2013-9-30,76.5,68.2,60.1,63.0,56.8,47.1,93,69,38,30.06,29.97,18,8,18,0.00
2013-10-1,78.9,69.2,58.6,64.8,57.9,54.1,90,69,51,30.11,30.02,15,5,15,0.00
2013-10-2,82.8,73.1,64.0,68.9,64.4,59.8,89,75,57,30.12,30.04,17,6,17,0.00
2013-10-3,82.1,74.6,67.4,71.7,69.1,65.2,95,84,69,30.15,30.08,12,4,12,0.00
2013-10-4,83.0,76.4,70.5,72.9,70.9,68.7,95,84,67,30.14,30.06,12,3,12,0.00
2013-10-5,83.8,75.7,67.6,73.4,70.2,66.7,98,84,63,30.12,30.05,13,3,14,0.00
2013-10-6,78.6,75.7,73.1,74.7,72.9,70.1,96,91,80,30.07,29.95,23,6,23,0.42
2013-10-7,81.5,77.5,73.9,75.2,73.7,69.1,96,88,76,29.95,29.85,30,10,33,0.28
2013-10-8,74.1,65.5,60.3,72.4,64.0,58.8,97,95,91,30.07,29.88,33,18,34,1.96
2013-10-9,64.0,61.9,60.4,62.2,60.3,58.7,96,94,92,30.03,29.92,40,23,41,0.02
2013-10-10,61.4,59.7,57.6,60.3,58.5,56.7,97,96,93,29.93,29.87,34,18,35,0.51
2013-10-11,67.7,64.0,61.2,64.2,62.0,60.0,98,93,86,29.95,29.87,21,10,21,0.01
2013-10-12,67.6,65.2,63.3,65.2,63.4,61.1,97,94,89,30.03,29.92,17,7,18,0.00
2013-10-13,74.4,69.4,65.8,69.2,67.1,64.6,99,92,80,30.10,30.01,23,11,23,0.01
2013-10-14,72.3,70.0,65.7,68.4,66.5,62.1,95,89,82,30.12,30.05,27,15,27,0.00
2013-10-15,69.8,65.8,61.4,65.7,63.2,60.1,96,91,85,30.10,29.98,25,14,25,0.00
2013-10-16,72.5,68.7,65.9,67.7,65.6,64.5,97,90,81,30.01,29.93,19,8,19,0.00
2013-10-17,76.5,69.6,63.3,69.9,66.0,62.0,97,89,75,29.98,29.87,23,7,23,0.00
2013-10-18,74.7,71.4,68.9,70.9,68.6,66.7,96,91,81,30.00,29.88,16,6,16,0.03
2013-10-19,74.9,71.8,69.0,72.2,70.6,67.0,98,96,88,29.95,29.84,18,4,19,0.15
2013-10-20,71.0,65.1,61.6,66.7,58.3,51.6,93,79,60,30.08,29.87,27,10,27,0.00
2013-10-21,69.5,63.2,55.8,59.9,56.1,52.4,94,78,60,30.13,29.99,16,7,16,0.00
2013-10-22,66.9,63.7,59.3,62.1,57.1,52.5,90,79,72,30.00,29.83,13,4,13,0.02
2013-10-23,71.0,63.2,54.7,60.4,55.1,42.4,97,77,47,29.96,29.67,33,11,33,0.18
2013-10-24,60.7,53.1,43.9,49.4,41.3,34.7,86,65,41,30.16,29.96,22,9,24,0.00
2013-10-25,57.5,52.0,46.9,48.3,39.8,32.7,81,64,40,30.35,30.15,27,11,27,0.00
2013-10-26,63.6,51.5,38.1,48.8,40.4,33.8,87,67,42,30.34,30.11,16,7,17,0.00
2013-10-27,67.4,57.7,49.5,54.5,46.6,42.1,87,68,46,30.15,30.06,18,5,19,0.00
2013-10-28,71.2,62.7,55.5,60.7,55.2,51.7,91,78,56,30.25,30.13,10,1,10,0.00
2013-10-29,60.4,58.1,55.4,57.6,55.2,52.5,92,90,88,30.29,30.22,9,2,9,0.00
2013-10-31,73.8,71.4,69.7,69.3,68.5,67.8,95,91,85,30.15,30.00,22,10,23,0.00
2013-11-1,75.8,72.1,68.7,70.9,69.0,66.6,96,90,82,30.00,29.75,30,12,30,0.05
2013-11-2,75.3,66.7,60.3,70.8,62.5,53.4,96,87,71,29.90,29.69,31,9,31,0.80
2013-11-3,63.1,56.9,50.0,53.1,46.6,39.5,86,70,43,30.32,29.88,25,12,25,0.00
2013-11-4,59.5,52.0,44.5,47.1,42.9,35.6,92,72,47,30.47,30.31,26,12,26,0.00
2013-11-5,70.4,59.6,46.6,62.2,53.9,43.0,92,82,71,30.44,30.36,24,13,24,0.00
2013-11-6,69.1,63.7,57.7,65.4,60.3,52.5,98,89,77,30.36,30.09,22,8,22,0.13
2013-11-7,71.5,66.1,57.1,66.0,63.1,45.0,99,91,63,30.09,29.90,36,9,36,0.28
2013-11-8,57.5,51.3,45.4,46.9,38.3,30.9,77,62,38,30.32,30.01,29,12,36,0.00
2013-11-9,62.5,53.8,43.4,53.7,44.0,36.2,84,70,49,30.36,30.21,13,5,13,0.00
2013-11-10,68.7,59.9,53.8,54.5,48.3,36.8,86,68,36,30.22,30.08,19,8,19,0.00
2013-11-11,59.6,53.1,45.1,50.9,43.1,36.3,90,69,54,30.32,30.15,26,7,26,0.00
2013-11-12,66.1,53.1,37.2,48.0,41.8,28.9,92,68,41,30.36,30.00,43,13,43,0.00
2013-11-13,46.1,38.9,33.0,33.8,27.1,20.5,94,64,39,30.51,30.33,35,15,38,0.01
2013-11-14,57.6,45.9,34.0,45.9,31.4,20.9,84,60,26,30.52,30.35,14,4,14,0.00
2013-11-15,63.6,56.7,46.0,60.5,52.0,41.6,96,85,64,30.36,30.21,18,6,18,0.04
2013-11-16,66.8,62.9,59.1,63.8,61.2,58.2,98,94,86,30.23,30.16,15,5,15,0.01
2013-11-17,70.0,63.2,56.4,66.0,61.8,55.6,99,95,84,30.19,29.97,22,5,25,0.09
2013-11-18,77.0,68.5,61.8,69.7,65.4,47.3,99,90,59,29.97,29.76,23,10,24,0.18
2013-11-19,61.8,53.8,48.1,48.4,38.2,31.5,79,56,38,30.26,29.89,26,13,28,0.00
2013-11-20,58.7,50.4,43.0,49.0,43.6,36.6,88,78,67,30.37,30.23,24,13,24,0.00
2013-11-21,65.2,57.3,49.0,59.4,54.1,45.9,97,89,79,30.41,30.34,22,10,22,0.00
2013-11-22,68.6,61.7,56.2,63.8,59.7,55.2,97,93,83,30.36,30.10,15,4,16,0.00
2013-11-23,65.8,61.0,53.0,63.0,58.1,43.5,95,90,67,30.11,29.99,23,9,23,0.00
2013-11-24,53.0,39.9,32.4,42.3,23.6,14.7,67,52,34,30.54,30.08,36,16,38,0.00
2013-11-25,47.7,36.7,27.2,43.8,25.4,14.0,91,64,43,30.59,30.34,23,9,23,0.00
2013-11-26,66.9,58.8,41.6,65.3,56.6,38.9,98,92,79,30.34,29.63,35,13,35,0.71
2013-11-27,67.5,54.2,35.8,66.5,52.0,28.0,99,92,70,30.15,29.44,38,18,40,0.85
2013-11-28,44.9,37.6,30.4,35.3,27.7,21.3,85,68,43,30.49,30.14,29,9,29,0.00
2013-11-29,53.2,43.9,35.9,37.4,32.2,27.8,83,65,40,30.57,30.46,23,10,25,0.00
2013-11-30,56.0,46.2,37.1,47.5,39.9,30.6,89,79,67,30.56,30.31,23,11,23,0.00
2013-12-1,54.6,50.2,45.0,52.7,47.8,42.8,97,91,84,30.31,30.00,13,5,14,0.00
2013-12-2,57.1,51.2,47.5,49.9,47.7,43.8,98,88,73,30.00,29.80,18,7,19,0.00
2013-12-3,58.9,52.2,43.9,53.5,47.3,40.8,92,84,67,30.02,29.87,9,2,11,0.00
2013-12-4,65.5,59.3,55.9,64.8,58.0,53.3,99,96,89,30.12,29.99,13,2,13,0.56
2013-12-5,65.7,60.3,54.4,64.2,59.7,54.1,99,98,93,30.18,30.09,17,4,17,0.00
2013-12-6,67.8,63.8,61.5,65.7,62.9,60.9,100,97,91,30.16,30.06,21,10,21,0.01
2013-12-7,67.7,54.5,44.1,65.1,53.3,41.7,99,96,87,30.40,30.07,32,14,32,0.29
2013-12-8,44.8,43.3,41.7,43.3,42.1,40.4,98,95,90,30.39,30.26,23,12,23,0.03
2013-12-9,61.4,51.7,42.6,61.0,51.3,41.7,100,99,96,30.26,30.06,14,4,14,0.01
2013-12-10,70.0,56.2,41.4,66.3,54.3,36.0,100,94,82,30.33,29.86,40,11,41,0.04
2013-12-11,51.7,43.2,35.2,41.0,31.3,22.8,85,64,40,30.47,30.29,17,5,18,0.00
2013-12-12,47.7,42.1,37.1,36.3,31.3,25.4,82,66,44,30.39,30.25,32,10,32,0.00
2013-12-13,50.9,42.6,34.0,40.5,31.5,22.1,86,67,38,30.45,30.31,15,4,15,0.00
2013-12-14,67.5,55.9,42.6,66.0,51.8,34.9,98,86,68,30.32,29.76,33,12,34,0.77
2013-12-15,64.8,55.5,43.9,63.7,52.1,40.0,98,88,74,30.08,29.70,34,10,34,0.06
2013-12-16,57.0,47.0,36.8,47.8,39.4,33.0,88,76,46,30.20,30.07,19,7,20,0.00
2013-12-17,58.3,53.1,45.1,50.9,45.2,38.9,90,75,58,30.18,29.98,28,11,30,0.00
2013-12-18,55.9,47.3,41.6,41.8,34.9,24.4,87,64,35,30.32,30.00,28,8,28,0.00
2013-12-19,58.4,49.4,38.9,50.5,40.3,28.3,95,73,37,30.37,30.28,15,4,15,0.00
2013-12-20,65.5,56.0,48.6,60.8,54.0,47.2,97,93,82,30.28,30.16,15,2,15,0.00
2013-12-21,65.3,60.4,55.5,63.4,59.3,54.4,99,96,90,30.19,30.11,15,4,16,0.02
2013-12-22,67.7,62.6,58.3,66.2,61.9,57.7,100,98,93,30.15,30.09,22,8,22,0.02
2013-12-23,67.0,63.3,58.7,66.7,62.5,57.6,100,97,92,30.14,30.03,25,10,25,0.09
2013-12-24,58.7,47.8,37.9,57.8,43.4,33.1,97,85,62,30.40,30.03,26,13,26,0.29
2013-12-25,45.5,38.6,31.3,37.5,29.7,23.1,87,71,55,30.52,30.35,22,11,22,0.00
2013-12-26,44.9,42.7,38.3,43.5,39.5,35.2,96,88,78,30.35,30.23,20,10,20,0.02
2013-12-27,53.2,44.5,37.4,39.2,35.8,30.4,92,73,43,30.42,30.32,17,8,17,0.00
2013-12-28,56.7,48.1,37.0,49.8,38.8,29.6,87,71,41,30.41,30.13,14,6,16,0.00
2013-12-29,67.9,60.8,52.6,65.9,58.4,49.4,99,92,84,30.14,29.73,36,14,37,0.19
2013-12-30,58.7,52.2,47.1,50.8,47.7,45.4,98,85,67,30.14,29.93,13,4,14,0.01
2013-12-31,53.6,49.3,44.5,47.6,41.4,32.3,93,75,45,30.37,30.09,27,8,27,0.00
2014-1-1,52.9,47.1,41.6,44.9,39.6,33.4,91,76,51,30.42,30.15,17,5,17,0.02
2014-1-2,58.2,51.3,46.7,57.8,50.2,44.3,99,96,90,30.15,29.56,39,6,39,0.71